Time;durP1;ratioP1;P1;durP2;ratioP2;P2;SDS_P1;SDS_P2;PMS_P1;PMS_P2;Temp;Humidity;BMP_temperature;BMP_pressure;BME280_temperature;BME280_humidity;BME280_pressure;Samples;Min_cycle;Max_cycle;Signal;HPM_P1;HPM_P2
2021/10/24 00:01:53;;;;;;;9.18;1.10;;;;;;;8.46;76.99;102239.25;6246293;22;20015;-78
2021/10/24 00:04:19;;;;;;;4.95;0.80;;;;;;;8.51;76.93;102237.97;6219660;23;20015;-78
2021/10/24 00:06:44;;;;;;;6.95;0.90;;;;;;;8.49;77.14;102232.75;6244216;23;20324;-78
2021/10/24 00:09:10;;;;;;;5.82;1.02;;;;;;;8.30;76.96;102198.81;6244372;23;20008;-78
2021/10/24 00:11:36;;;;;;;6.55;0.85;;;;;;;8.59;77.83;102240.75;6244866;23;20414;-79
2021/10/24 00:14:04;;;;;;;5.22;0.90;;;;;;;8.24;77.98;102184.19;6244980;22;20689;-78
2021/10/24 00:16:29;;;;;;;7.55;0.98;;;;;;;8.52;77.92;102218.19;6246285;23;20008;-78
2021/10/24 00:18:55;;;;;;;6.50;0.88;;;;;;;8.57;78.58;102223.94;6244090;23;20000;-78
2021/10/24 00:21:20;;;;;;;6.82;1.15;;;;;;;8.56;78.17;102236.53;6219606;23;20008;-78
2021/10/24 00:23:46;;;;;;;5.20;0.95;;;;;;;8.65;79.01;102238.31;6244948;23;20009;-78
2021/10/24 00:26:11;;;;;;;9.25;1.30;;;;;;;8.67;78.47;102227.41;6244927;22;20019;-78
2021/10/24 00:28:37;;;;;;;5.47;0.93;;;;;;;8.70;79.25;102233.31;6245703;22;20000;-79
2021/10/24 00:31:02;;;;;;;4.82;1.02;;;;;;;8.70;78.26;102230.63;6245924;22;20035;-78
2021/10/24 00:33:28;;;;;;;6.95;1.13;;;;;;;8.70;78.41;102229.78;6194030;23;20016;-79
2021/10/24 00:35:53;;;;;;;8.13;1.20;;;;;;;8.71;79.24;102228.81;6245759;23;20350;-79
2021/10/24 00:38:18;;;;;;;6.22;1.00;;;;;;;8.34;79.29;102170.69;6245642;22;20080;-78
2021/10/24 00:40:44;;;;;;;8.32;1.40;;;;;;;8.72;79.39;102232.34;6246084;22;20390;-79
2021/10/24 00:43:09;;;;;;;6.43;0.93;;;;;;;8.71;79.27;102236.88;6219177;23;20600;-78
2021/10/24 00:45:35;;;;;;;7.72;1.35;;;;;;;8.67;80.20;102225.56;6248278;22;20024;-79
2021/10/24 00:48:01;;;;;;;4.85;1.05;;;;;;;8.51;79.56;102187.84;6246986;22;20039;-78
2021/10/24 00:50:26;;;;;;;8.23;1.65;;;;;;;8.63;79.76;102204.56;6247111;22;20066;-79
2021/10/24 00:52:53;;;;;;;7.00;1.20;;;;;;;8.76;79.68;102231.03;6248646;22;20061;-79
2021/10/24 00:55:21;;;;;;;5.43;1.00;;;;;;;8.67;79.81;102197.88;6246188;23;20019;-78
2021/10/24 00:57:47;;;;;;;3.95;0.75;;;;;;;8.82;80.18;102219.69;6248678;22;20004;-79
2021/10/24 01:00:13;;;;;;;8.05;0.98;;;;;;;8.74;80.14;102209.72;6247802;23;20035;-78
2021/10/24 01:02:39;;;;;;;6.05;1.00;;;;;;;8.84;80.24;102226.59;6252637;22;20019;-79
2021/10/24 01:05:06;;;;;;;5.00;1.10;;;;;;;8.80;79.96;102219.81;6253387;22;20014;-78
2021/10/24 01:07:38;;;;;;;3.22;1.00;;;;;;;8.87;80.16;102223.59;6246175;23;20012;-78
2021/10/24 01:10:04;;;;;;;5.78;1.25;;;;;;;8.87;79.82;102220.06;6246533;23;20031;-78
2021/10/24 01:12:30;;;;;;;6.50;1.05;;;;;;;8.89;80.34;102218.91;6247971;22;20414;-78
2021/10/24 01:14:55;;;;;;;6.50;1.48;;;;;;;8.90;80.17;102206.34;6246784;23;20015;-78
2021/10/24 01:17:22;;;;;;;6.88;1.08;;;;;;;8.96;80.15;102212.94;6247816;22;20091;-79
2021/10/24 01:19:49;;;;;;;5.55;1.02;;;;;;;8.96;79.74;102212.94;6245518;23;20012;-78
2021/10/24 01:22:14;;;;;;;7.18;1.10;;;;;;;8.92;80.29;102210.56;6221413;23;20015;-78
2021/10/24 01:24:39;;;;;;;7.70;0.80;;;;;;;8.90;80.03;102207.16;6246668;23;20004;-79
2021/10/24 01:27:06;;;;;;;3.70;1.10;;;;;;;8.93;80.12;102204.19;6246626;22;20008;-79
2021/10/24 01:29:31;;;;;;;5.82;1.10;;;;;;;8.92;80.89;102207.88;6245934;23;19996;-79
2021/10/24 01:31:56;;;;;;;6.65;1.00;;;;;;;8.95;81.10;102212.09;6247321;22;20047;-78
2021/10/24 01:34:22;;;;;;;6.10;1.20;;;;;;;8.96;81.36;102208.41;6219615;23;20004;-79
2021/10/24 01:36:48;;;;;;;7.47;1.27;;;;;;;8.93;80.92;102201.50;6221576;23;20027;-78
2021/10/24 01:39:14;;;;;;;7.35;1.17;;;;;;;9.00;80.53;102196.34;6246395;23;20011;-78
2021/10/24 01:41:40;;;;;;;8.98;1.42;;;;;;;8.91;81.33;102171.28;6221381;23;20399;-78
2021/10/24 01:44:06;;;;;;;10.48;1.63;;;;;;;9.00;80.54;102176.72;6221053;23;20031;-79
2021/10/24 01:46:32;;;;;;;7.97;1.38;;;;;;;8.91;81.41;102165.09;6247642;22;20083;-78
2021/10/24 01:48:57;;;;;;;6.95;1.02;;;;;;;9.07;81.50;102193.88;6245187;23;20050;-77
2021/10/24 01:51:23;;;;;;;8.85;1.23;;;;;;;9.08;80.92;102190.22;6221197;23;20095;-78
2021/10/24 01:53:48;;;;;;;8.25;1.45;;;;;;;9.10;81.02;102186.38;6246378;22;20024;-78
2021/10/24 01:56:15;;;;;;;8.07;1.23;;;;;;;9.12;81.28;102188.91;6221185;23;20013;-78
2021/10/24 01:58:42;;;;;;;6.53;1.08;;;;;;;9.12;81.60;102186.22;6247874;22;20026;-78
2021/10/24 02:01:08;;;;;;;7.30;1.40;;;;;;;8.99;82.15;102169.69;6247037;22;20411;-78
2021/10/24 02:03:33;;;;;;;7.90;1.13;;;;;;;9.07;82.67;102181.34;6247464;23;20004;-78
2021/10/24 02:05:59;;;;;;;10.02;1.48;;;;;;;8.93;83.08;102163.91;6246237;23;20012;-78
2021/10/24 02:08:24;;;;;;;9.60;1.60;;;;;;;9.02;83.34;102180.94;6249438;22;20085;-79
2021/10/24 02:10:51;;;;;;;8.85;1.58;;;;;;;9.01;84.55;102173.06;6248329;22;20012;-78
2021/10/24 02:13:17;;;;;;;7.43;1.38;;;;;;;8.99;85.07;102181.25;6251613;23;20064;-79
2021/10/24 02:15:42;;;;;;;11.07;1.70;;;;;;;8.94;85.27;102167.47;6249871;22;20023;-78
2021/10/24 02:18:10;;;;;;;10.50;1.55;;;;;;;8.97;86.14;102172.50;6245590;23;20004;-78
2021/10/24 02:20:37;;;;;;;10.82;1.48;;;;;;;8.93;86.00;102158.53;6247140;22;20035;-78
2021/10/24 02:23:05;;;;;;;6.63;1.63;;;;;;;9.02;86.32;102161.31;6245073;23;20000;-78
2021/10/24 02:25:32;;;;;;;6.18;1.65;;;;;;;9.01;86.90;102167.69;6246354;22;20075;-78
2021/10/24 02:27:58;;;;;;;10.30;1.48;;;;;;;9.05;87.49;102152.94;6245404;23;20019;-79
2021/10/24 02:30:23;;;;;;;12.07;2.40;;;;;;;9.06;88.32;102155.47;6246959;22;20012;-79
2021/10/24 02:32:48;;;;;;;9.15;1.58;;;;;;;8.93;88.72;102138.91;6220152;23;20058;-78
2021/10/24 02:35:14;;;;;;;7.63;1.15;;;;;;;8.92;89.07;102145.28;6246994;22;20008;-78
2021/10/24 02:37:42;;;;;;;11.43;1.73;;;;;;;9.02;89.42;102158.63;6244167;23;20008;-79
2021/10/24 02:40:08;;;;;;;10.27;1.70;;;;;;;8.97;89.95;102145.66;6244790;23;20027;-78
2021/10/24 02:42:33;;;;;;;10.82;1.73;;;;;;;9.05;90.43;102158.31;6245489;23;20008;-79
2021/10/24 02:44:59;;;;;;;12.15;2.10;;;;;;;9.08;90.06;102155.31;6246797;22;20383;-78
2021/10/24 02:47:26;;;;;;;10.10;1.90;;;;;;;9.06;91.06;102157.31;6246214;23;20070;-78
2021/10/24 02:49:51;;;;;;;8.98;1.58;;;;;;;9.08;91.46;102149.94;6246141;22;20018;-78
2021/10/24 02:52:17;;;;;;;12.07;1.80;;;;;;;9.04;90.75;102137.81;6247203;22;20031;-78
2021/10/24 02:54:43;;;;;;;10.75;1.73;;;;;;;9.04;91.53;102140.50;6244579;23;20410;-78
2021/10/24 02:57:08;;;;;;;5.50;1.38;;;;;;;9.09;92.22;102146.25;6244942;23;20016;-78
2021/10/24 02:59:33;;;;;;;10.00;2.20;;;;;;;8.89;91.60;102116.91;6219719;23;20008;-78
2021/10/24 03:02:00;;;;;;;11.50;2.45;;;;;;;9.13;91.67;102140.41;6245674;23;20015;-78
2021/10/24 03:04:25;;;;;;;9.82;1.60;;;;;;;9.05;91.98;102120.72;6245186;23;20012;-78
2021/10/24 03:06:51;;;;;;;14.65;1.65;;;;;;;9.00;92.08;102114.97;6219201;23;20012;-78
2021/10/24 03:09:17;;;;;;;15.35;2.53;;;;;;;9.15;92.06;102134.91;6244574;23;20015;-78
2021/10/24 03:11:42;;;;;;;13.48;1.90;;;;;;;9.21;92.29;102142.31;6219994;23;20019;-78
2021/10/24 03:14:07;;;;;;;10.73;2.40;;;;;;;9.23;92.45;102139.47;6248805;23;20135;-79
2021/10/24 03:16:36;;;;;;;8.93;1.63;;;;;;;9.19;92.35;102128.19;6250580;22;20082;-78
2021/10/24 03:19:03;;;;;;;8.55;2.00;;;;;;;9.27;92.76;102132.78;6218863;23;20008;-78
2021/10/24 03:21:29;;;;;;;13.30;2.00;;;;;;;9.14;92.83;102103.69;6195538;23;20339;-79
2021/10/24 03:23:54;;;;;;;14.20;1.90;;;;;;;9.29;92.89;102128.94;6253401;22;20299;-79
2021/10/24 03:26:20;;;;;;;11.30;1.88;;;;;;;9.29;92.39;102126.25;6246110;22;20015;-78
2021/10/24 03:28:45;;;;;;;10.82;1.70;;;;;;;9.19;91.93;102117.47;6220449;23;20015;-78
2021/10/24 03:31:11;;;;;;;12.70;1.90;;;;;;;9.32;92.81;102128.63;6219411;23;20577;-78
2021/10/24 03:33:36;;;;;;;13.77;1.90;;;;;;;9.29;92.59;102118.19;6219598;23;20082;-78
2021/10/24 03:36:02;;;;;;;12.95;1.92;;;;;;;9.36;92.66;102124.63;6246173;22;20035;-78
2021/10/24 03:38:28;;;;;;;12.85;1.67;;;;;;;9.35;92.58;102131.00;6244783;23;20008;-78
2021/10/24 03:40:53;;;;;;;8.88;1.58;;;;;;;9.37;92.89;102123.63;6246651;22;20011;-79
2021/10/24 03:43:18;;;;;;;9.40;1.60;;;;;;;9.23;92.64;102105.38;6245513;23;20023;-78
2021/10/24 03:45:44;;;;;;;10.93;2.13;;;;;;;9.31;93.08;102120.75;6246700;22;20027;-78
2021/10/24 03:48:09;;;;;;;8.27;1.55;;;;;;;9.37;92.56;102129.00;6246143;22;20007;-78
2021/10/24 03:50:35;;;;;;;10.02;1.50;;;;;;;9.36;92.88;102129.16;6244861;23;20012;-78
2021/10/24 03:53:00;;;;;;;12.52;1.58;;;;;;;9.29;92.88;102107.44;6245720;23;20012;-78
2021/10/24 03:55:26;;;;;;;6.50;1.50;;;;;;;9.43;92.29;102122.13;6245061;23;20016;-78
2021/10/24 03:57:51;;;;;;;7.70;1.38;;;;;;;9.47;93.18;102126.22;6244638;23;20004;-78
2021/10/24 04:00:16;;;;;;;7.50;1.38;;;;;;;9.50;92.82;102117.81;6246059;22;20117;-78
2021/10/24 04:03:05;;;;;;;10.25;1.95;;;;;;;9.28;92.05;102078.91;6219823;23;20391;-78
2021/10/24 04:05:31;;;;;;;10.82;1.45;;;;;;;9.52;93.60;102115.81;6244784;23;20043;-79
2021/10/24 04:07:56;;;;;;;6.18;1.30;;;;;;;9.51;93.37;102118.66;6244895;23;20008;-78
2021/10/24 04:10:23;;;;;;;12.27;1.70;;;;;;;9.51;94.07;102115.97;6244349;23;20023;-78
2021/10/24 04:12:50;;;;;;;10.77;1.50;;;;;;;9.51;94.53;102119.50;6245490;23;20018;-78
2021/10/24 04:15:17;;;;;;;9.65;1.60;;;;;;;9.51;94.29;102116.81;6244548;23;20429;-78
2021/10/24 04:17:43;;;;;;;8.77;1.65;;;;;;;9.52;94.69;102118.50;6246901;22;20057;-78
2021/10/24 04:20:12;;;;;;;16.70;2.10;;;;;;;9.47;95.09;102111.91;6247902;22;20367;-78
2021/10/24 04:22:39;;;;;;;10.10;1.98;;;;;;;9.50;96.15;102114.28;6251068;22;20012;-79
2021/10/24 04:25:07;;;;;;;13.27;1.80;;;;;;;9.49;95.85;102112.59;6247876;22;20083;-78
2021/10/24 04:27:34;;;;;;;11.35;1.90;;;;;;;9.40;96.12;102085.72;6249068;22;20422;-78
2021/10/24 04:30:00;;;;;;;11.68;2.28;;;;;;;9.49;96.68;102096.47;6248478;22;20074;-78
2021/10/24 04:32:27;;;;;;;11.80;1.70;;;;;;;9.38;96.74;102090.38;6252598;22;20004;-78
2021/10/24 04:34:53;;;;;;;11.63;2.03;;;;;;;9.48;97.44;102111.75;6250100;23;20099;-78
2021/10/24 04:37:19;;;;;;;15.85;2.00;;;;;;;9.37;97.87;102087.84;6246923;23;20004;-78
2021/10/24 04:39:44;;;;;;;15.05;1.92;;;;;;;9.36;97.91;102095.06;6247366;22;20617;-78
2021/10/24 04:42:10;;;;;;;11.50;1.73;;;;;;;9.35;97.92;102089.88;6247141;22;20008;-78
2021/10/24 04:44:36;;;;;;;10.15;1.63;;;;;;;9.48;98.83;102108.25;6247585;22;20023;-77
2021/10/24 04:47:02;;;;;;;9.48;1.80;;;;;;;9.50;99.11;102109.75;6247361;22;20310;-78
2021/10/24 04:49:29;;;;;;;12.73;2.03;;;;;;;9.51;98.66;102114.13;6246496;22;20010;-78
2021/10/24 04:51:54;;;;;;;14.20;2.08;;;;;;;9.33;98.58;102075.75;6249164;22;20031;-78
2021/10/24 04:54:21;;;;;;;9.52;1.73;;;;;;;9.47;98.94;102082.34;6247832;22;20012;-78
2021/10/24 04:56:46;;;;;;;12.18;2.30;;;;;;;9.55;99.64;102098.53;6220406;23;20016;-78
2021/10/24 04:59:12;;;;;;;12.07;2.30;;;;;;;9.57;99.41;102093.81;6248232;22;20027;-78
2021/10/24 05:01:37;;;;;;;10.02;1.55;;;;;;;9.61;99.29;102106.78;6246381;23;20022;-78
2021/10/24 05:04:03;;;;;;;12.98;1.83;;;;;;;9.48;99.82;102076.00;6247683;22;20008;-78
2021/10/24 05:06:29;;;;;;;13.02;1.80;;;;;;;9.55;100.00;102090.47;6247122;22;20022;-79
2021/10/24 05:08:54;;;;;;;10.65;1.75;;;;;;;9.56;99.88;102078.72;6222122;23;20031;-78
2021/10/24 05:11:20;;;;;;;11.68;2.40;;;;;;;9.68;100.00;102104.31;6219969;23;20012;-77
2021/10/24 05:13:45;;;;;;;10.70;1.70;;;;;;;9.69;100.00;102087.16;6248174;22;20039;-79
2021/10/24 05:16:11;;;;;;;12.32;1.90;;;;;;;9.68;100.00;102088.19;6248169;22;20340;-78
2021/10/24 05:18:36;;;;;;;21.15;2.75;;;;;;;9.58;99.92;102069.50;6219475;23;20023;-79
2021/10/24 05:21:01;;;;;;;11.95;2.20;;;;;;;9.70;99.97;102088.88;6246137;23;20024;-79
2021/10/24 05:23:27;;;;;;;14.02;2.33;;;;;;;9.72;100.00;102073.41;6246474;23;20008;-78
2021/10/24 05:25:52;;;;;;;14.38;1.77;;;;;;;9.72;100.00;102073.41;6247387;22;20008;-78
2021/10/24 05:28:18;;;;;;;13.55;2.28;;;;;;;9.57;100.00;102034.69;6224659;23;20012;-79
2021/10/24 05:30:43;;;;;;;12.13;1.90;;;;;;;9.70;100.00;102058.44;6247710;22;20091;-78
2021/10/24 05:33:09;;;;;;;14.48;2.17;;;;;;;9.71;100.00;102049.38;6246292;23;20418;-78
2021/10/24 05:35:34;;;;;;;7.55;1.73;;;;;;;9.68;100.00;102045.16;6246979;22;20000;-78
2021/10/24 05:38:00;;;;;;;15.93;2.47;;;;;;;9.57;100.00;102035.56;6220849;23;20000;-78
2021/10/24 05:40:26;;;;;;;11.15;1.80;;;;;;;9.65;100.00;102050.88;6246815;23;20391;-78
2021/10/24 05:42:51;;;;;;;12.75;2.00;;;;;;;9.68;100.00;102063.16;6253398;22;20082;-79
2021/10/24 05:45:16;;;;;;;10.38;1.50;;;;;;;9.57;100.00;102048.13;6247360;23;20018;-78
2021/10/24 05:47:42;;;;;;;14.52;1.88;;;;;;;9.60;100.00;102056.75;6245156;23;20012;-79
2021/10/24 05:50:08;;;;;;;8.73;1.80;;;;;;;9.72;100.00;102067.19;6219534;23;20027;-78
2021/10/24 05:52:33;;;;;;;12.88;1.92;;;;;;;9.73;100.00;102061.63;6245645;23;20018;-78
2021/10/24 05:54:59;;;;;;;13.07;2.00;;;;;;;9.75;100.00;102066.88;6244986;23;20012;-78
2021/10/24 05:57:25;;;;;;;11.38;1.73;;;;;;;9.76;100.00;102080.13;6245367;23;20016;-78
2021/10/24 05:59:50;;;;;;;15.20;2.03;;;;;;;9.79;100.00;102070.91;6246665;23;20008;-78
2021/10/24 06:02:15;;;;;;;13.40;2.22;;;;;;;9.72;100.00;102043.84;6220319;23;20012;-77
2021/10/24 06:04:41;;;;;;;12.63;2.00;;;;;;;9.81;100.00;102060.84;6245252;23;20016;-78
2021/10/24 06:07:06;;;;;;;21.77;2.60;;;;;;;9.78;100.00;102059.31;6246693;23;20091;-77
2021/10/24 06:12:17;;;;;;;11.30;2.28;;;;;;;9.79;100.00;102061.00;6258451;22;20026;-78
2021/10/24 06:14:43;;;;;;;11.67;2.00;;;;;;;9.67;100.00;102040.81;6245156;23;20012;-78
2021/10/24 06:17:09;;;;;;;16.33;2.33;;;;;;;9.69;100.00;102060.28;6245896;23;20047;-80
2021/10/24 06:19:36;;;;;;;13.85;2.42;;;;;;;9.62;100.00;102024.31;6248687;22;19999;-80
2021/10/24 06:22:02;;;;;;;15.10;3.13;;;;;;;9.75;100.00;102058.81;6224016;23;20016;-80
2021/10/24 06:24:27;;;;;;;15.15;2.30;;;;;;;9.66;100.00;102041.78;6246474;23;20032;-79
2021/10/24 06:26:52;;;;;;;14.70;2.63;;;;;;;9.65;100.00;102042.81;6247169;22;20442;-79
2021/10/24 06:29:18;;;;;;;14.77;2.38;;;;;;;9.73;100.00;102067.00;6246207;22;20016;-79
2021/10/24 06:31:43;;;;;;;13.05;2.33;;;;;;;9.45;100.00;102014.53;6246355;23;20016;-79
2021/10/24 06:34:09;;;;;;;12.25;2.42;;;;;;;9.58;100.00;102021.13;6226307;23;20008;-79
2021/10/24 06:36:35;;;;;;;17.48;2.50;;;;;;;9.78;100.00;102053.09;6246690;23;20037;-78
2021/10/24 06:39:01;;;;;;;13.55;2.80;;;;;;;9.62;100.00;102032.38;6219971;23;20015;-79
2021/10/24 06:41:26;;;;;;;15.20;2.67;;;;;;;9.80;100.00;102056.44;6246478;23;20052;-79
2021/10/24 06:43:52;;;;;;;20.23;2.95;;;;;;;9.82;100.00;102046.38;6220059;23;20004;-78
2021/10/24 06:46:17;;;;;;;16.92;3.47;;;;;;;9.85;100.00;102043.38;6245986;23;20020;-79
2021/10/24 06:48:43;;;;;;;11.25;2.10;;;;;;;9.91;100.00;102058.03;6245656;23;20012;-79
2021/10/24 06:51:08;;;;;;;19.45;2.40;;;;;;;9.92;100.00;102057.84;6254760;23;20310;-80
2021/10/24 06:53:34;;;;;;;16.00;2.70;;;;;;;9.97;100.00;102055.50;6250048;23;20034;-79
2021/10/24 06:55:59;;;;;;;16.45;2.38;;;;;;;9.99;100.00;102055.34;6219787;23;20077;-78
2021/10/24 06:58:24;;;;;;;16.85;2.58;;;;;;;10.02;100.00;102055.00;6220456;23;20422;-79
2021/10/24 07:00:50;;;;;;;18.67;3.20;;;;;;;10.04;100.00;102047.63;6246951;22;20016;-79
2021/10/24 07:03:17;;;;;;;17.05;3.10;;;;;;;10.04;100.00;102053.84;6245918;23;20101;-79
2021/10/24 07:05:42;;;;;;;19.00;2.88;;;;;;;10.06;100.00;102042.91;6245857;23;20358;-78
2021/10/24 07:08:07;;;;;;;18.70;2.90;;;;;;;10.08;100.00;102043.59;6244123;23;20012;-78
2021/10/24 07:10:33;;;;;;;15.73;2.88;;;;;;;10.01;100.00;102027.28;6220165;23;20012;-78
2021/10/24 07:12:58;;;;;;;18.40;2.70;;;;;;;10.11;100.00;102045.97;6245281;23;20092;-78
2021/10/24 07:15:24;;;;;;;9.48;2.20;;;;;;;10.11;100.00;102043.25;6219729;23;20502;-78
2021/10/24 07:17:50;;;;;;;13.77;2.78;;;;;;;10.18;100.00;102046.13;6247275;22;20020;-81
2021/10/24 07:20:18;;;;;;;15.40;2.72;;;;;;;10.12;100.00;102039.56;6248019;22;20004;-79
2021/10/24 07:22:44;;;;;;;17.83;3.00;;;;;;;10.20;100.00;102036.03;6248640;22;20004;-80
2021/10/24 07:25:10;;;;;;;14.80;3.10;;;;;;;10.22;100.00;102036.72;6256936;23;20027;-81
2021/10/24 07:27:36;;;;;;;18.20;3.50;;;;;;;10.22;100.00;102042.94;6251205;22;20030;-80
2021/10/24 07:30:02;;;;;;;22.27;2.92;;;;;;;10.33;100.00;102042.66;6247074;23;20008;-80
2021/10/24 07:32:28;;;;;;;16.60;3.53;;;;;;;10.14;100.00;102013.34;6246984;22;20008;-80
2021/10/24 07:34:56;;;;;;;15.77;3.03;;;;;;;10.40;100.00;102050.91;6246970;22;20034;-80
2021/10/24 07:37:21;;;;;;;22.50;4.10;;;;;;;10.44;100.00;102059.47;6223591;23;20035;-80
2021/10/24 07:39:46;;;;;;;12.52;3.83;;;;;;;10.46;100.00;102052.94;6257716;23;20030;-80
2021/10/24 07:42:12;;;;;;;20.23;4.32;;;;;;;10.47;100.00;102056.44;6198045;23;20031;-80
2021/10/24 07:44:39;;;;;;;24.10;3.90;;;;;;;10.47;100.00;102051.91;6247895;22;20039;-79
2021/10/24 07:47:05;;;;;;;16.15;3.40;;;;;;;10.48;100.00;102058.97;6248039;22;20018;-80
2021/10/24 07:49:30;;;;;;;25.58;4.00;;;;;;;10.47;100.00;102064.53;6220389;23;20024;-79
2021/10/24 07:51:59;;;;;;;20.15;3.97;;;;;;;10.51;100.00;102063.19;6248580;23;20016;-80
2021/10/24 07:54:26;;;;;;;27.48;4.75;;;;;;;10.50;100.00;102067.72;6249653;23;20417;-79
2021/10/24 07:56:52;;;;;;;23.33;4.05;;;;;;;10.49;100.00;102062.50;6250472;23;20015;-80
2021/10/24 07:59:20;;;;;;;19.42;4.05;;;;;;;10.51;100.00;102063.19;6257757;22;20004;-79
2021/10/24 08:01:45;;;;;;;24.05;5.00;;;;;;;10.48;100.00;102067.03;6248799;23;20054;-78
2021/10/24 08:04:12;;;;;;;27.85;4.95;;;;;;;10.49;100.00;102062.50;6247258;23;20015;-78
2021/10/24 08:06:38;;;;;;;18.00;4.50;;;;;;;10.45;100.00;102059.28;6248108;22;20004;-78
2021/10/24 08:09:06;;;;;;;18.75;4.38;;;;;;;10.31;100.00;102031.22;6248110;22;20031;-78
2021/10/24 08:11:34;;;;;;;23.40;4.78;;;;;;;10.44;100.00;102056.78;6247775;22;20004;-79
2021/10/24 08:14:01;;;;;;;20.13;4.72;;;;;;;10.40;100.00;102045.53;6246667;23;20012;-78
2021/10/24 08:16:26;;;;;;;24.48;5.07;;;;;;;10.40;100.00;102041.97;6246541;23;20019;-79
2021/10/24 08:18:52;;;;;;;26.38;4.78;;;;;;;10.48;100.00;102050.06;6247376;23;20011;-79
2021/10/24 08:21:18;;;;;;;26.45;5.45;;;;;;;10.39;100.00;102043.81;6248090;23;20034;-78
2021/10/24 08:23:44;;;;;;;17.48;4.80;;;;;;;10.34;100.00;102044.34;6251666;22;20000;-79
2021/10/24 08:26:11;;;;;;;20.70;4.93;;;;;;;10.47;100.00;102053.75;6248948;22;20014;-78
2021/10/24 08:28:37;;;;;;;24.83;5.50;;;;;;;10.46;100.00;102062.81;6245715;23;20008;-78
2021/10/24 08:31:04;;;;;;;20.00;4.50;;;;;;;10.44;100.00;102056.78;6247119;22;20083;-78
2021/10/24 08:33:30;;;;;;;25.60;4.63;;;;;;;10.33;100.00;102047.16;6221408;23;20008;-78
2021/10/24 08:35:59;;;;;;;20.02;4.40;;;;;;;10.48;100.00;102069.72;6246301;23;20007;-78
2021/10/24 08:38:25;;;;;;;24.48;4.82;;;;;;;10.51;100.00;102065.88;6247727;22;20000;-78
2021/10/24 08:40:53;;;;;;;22.63;4.40;;;;;;;10.56;100.00;102068.88;6221886;23;20008;-79
2021/10/24 08:43:20;;;;;;;21.27;4.07;;;;;;;10.64;100.00;102054.59;6221763;23;20086;-79
2021/10/24 08:45:46;;;;;;;18.15;3.97;;;;;;;10.70;100.00;102065.53;6221571;23;20027;-79
2021/10/24 08:48:18;;;;;;;17.55;3.83;;;;;;;10.63;100.00;102044.81;6246834;23;20430;-79
2021/10/24 08:50:45;;;;;;;13.85;3.22;;;;;;;10.74;100.00;102066.88;6248205;23;20038;-80
2021/10/24 08:53:13;;;;;;;19.90;3.70;;;;;;;10.75;100.00;102065.00;6246955;23;20004;-79
2021/10/24 08:55:41;;;;;;;18.23;3.40;;;;;;;10.74;100.00;102069.56;6245797;23;20043;-79
2021/10/24 08:58:07;;;;;;;19.52;3.10;;;;;;;10.71;100.00;102069.91;6246356;23;20008;-79
2021/10/24 09:00:33;;;;;;;17.75;3.40;;;;;;;10.68;100.00;102067.53;6246296;23;20087;-79
2021/10/24 09:03:14;;;;;;;16.45;3.58;;;;;;;10.67;100.00;102060.47;6246409;23;20019;-78
2021/10/24 09:05:58;;;;;;;18.20;3.15;;;;;;;10.65;100.00;102070.56;6247141;22;19999;-79
2021/10/24 09:08:25;;;;;;;17.15;3.58;;;;;;;10.68;100.00;102080.16;6246465;23;20069;-80
2021/10/24 09:10:56;;;;;;;17.30;3.50;;;;;;;10.68;100.00;102054.09;6248245;22;20019;-79
2021/10/24 09:13:28;;;;;;;25.60;3.58;;;;;;;10.73;100.00;102070.59;6246327;23;20306;-79
2021/10/24 09:16:02;;;;;;;22.27;3.67;;;;;;;10.77;100.00;102066.53;6250020;22;20453;-78
2021/10/24 09:18:38;;;;;;;16.60;3.95;;;;;;;10.87;100.00;102077.13;6247119;22;20045;-79
2021/10/24 09:21:22;;;;;;;23.35;3.90;;;;;;;10.78;100.00;102061.97;6249001;22;20059;-78
2021/10/24 09:24:06;;;;;;;19.30;4.53;;;;;;;10.87;100.00;102071.75;6248818;23;20031;-78
2021/10/24 09:26:32;;;;;;;27.55;4.82;;;;;;;10.94;100.00;102077.28;6247744;22;20225;-77
2021/10/24 09:29:07;;;;;;;27.20;5.63;;;;;;;10.97;100.00;102077.78;6247666;23;20000;-80
2021/10/24 09:31:34;;;;;;;21.38;5.25;;;;;;;11.02;100.00;102080.78;6248718;22;20323;-78
2021/10/24 09:34:19;;;;;;;24.80;6.40;;;;;;;10.99;100.00;102075.78;6248211;22;20330;-78
2021/10/24 09:36:55;;;;;;;23.52;5.63;;;;;;;11.09;100.00;102089.03;6234549;22;20024;-81
2021/10/24 09:39:28;;;;;;;26.95;6.18;;;;;;;11.13;100.00;102085.00;6196333;23;20005;-80
2021/10/24 09:42:13;;;;;;;20.40;6.05;;;;;;;11.10;100.00;102074.56;6186534;23;20103;-80
2021/10/24 09:44:59;;;;;;;21.55;6.30;;;;;;;11.21;100.00;102089.53;6188002;23;20036;-80
2021/10/24 09:47:25;;;;;;;23.80;6.78;;;;;;;11.25;100.00;102086.31;6188598;23;20009;-79
2021/10/24 09:49:50;;;;;;;27.95;5.38;;;;;;;11.32;100.00;102080.22;6184802;23;20013;-78
2021/10/24 09:52:31;;;;;;;21.70;5.90;;;;;;;11.15;100.00;102047.09;6196498;23;20005;-79
2021/10/24 09:54:57;;;;;;;27.35;6.28;;;;;;;11.35;100.00;102064.56;6194767;23;20012;-80
2021/10/24 09:57:23;;;;;;;24.73;5.70;;;;;;;11.47;100.00;102071.25;6186585;23;20004;-80
2021/10/24 09:59:53;;;;;;;19.85;5.00;;;;;;;11.58;100.00;102083.50;6189714;23;20032;-80
2021/10/24 10:02:19;;;;;;;19.25;4.72;;;;;;;11.49;100.00;102057.63;6163639;23;20083;-80
2021/10/24 10:04:45;;;;;;;20.95;5.22;;;;;;;11.51;100.00;102059.09;6189855;23;20051;-80
2021/10/24 10:07:13;;;;;;;22.67;4.93;;;;;;;11.56;100.00;102050.50;6191383;23;20035;-80
2021/10/24 10:09:40;;;;;;;29.00;5.78;;;;;;;11.75;100.00;102068.97;6188645;23;20033;-79
2021/10/24 10:12:17;;;;;;;27.20;5.75;;;;;;;11.87;100.00;102082.91;6189243;23;20024;-80
2021/10/24 10:14:44;;;;;;;24.13;5.38;;;;;;;11.85;100.00;102073.31;6189029;23;20025;-80
2021/10/24 10:17:19;;;;;;;26.58;5.85;;;;;;;11.85;100.00;102076.00;6187655;23;20015;-80
2021/10/24 10:19:46;;;;;;;24.90;5.72;;;;;;;11.91;100.00;102065.34;6191250;23;20036;-81
2021/10/24 10:22:21;;;;;;;23.05;5.88;;;;;;;11.95;100.00;102065.84;6178335;23;20009;-80
2021/10/24 10:24:53;;;;;;;24.23;6.20;;;;;;;11.98;100.00;102065.47;6201178;23;20001;-81
2021/10/24 10:27:27;;;;;;;29.58;6.47;;;;;;;11.92;100.00;102050.88;6201601;23;20091;-81
2021/10/24 10:29:54;;;;;;;24.65;6.65;;;;;;;11.91;100.00;102069.91;6199683;23;20039;-81
2021/10/24 10:32:23;;;;;;;23.83;6.80;;;;;;;11.91;100.00;102069.91;6203085;23;20009;-82
2021/10/24 10:34:57;;;;;;;23.77;7.05;;;;;;;11.91;100.00;102068.06;6205095;23;20005;-81
2021/10/24 10:37:51;;;;;;;21.40;6.95;;;;;;;11.91;100.00;102069.91;6205814;23;20032;-81
2021/10/24 10:40:29;;;;;;;25.60;6.85;;;;;;;11.80;100.00;102057.63;6206421;23;20005;-81
2021/10/24 10:43:22;;;;;;;21.05;7.05;;;;;;;11.74;100.00;102053.78;6208814;23;20004;-82
2021/10/24 10:45:59;;;;;;;25.98;7.82;;;;;;;11.68;100.00;102053.66;6204920;23;20001;-81
2021/10/24 10:48:25;;;;;;;22.80;6.60;;;;;;;11.82;100.00;102076.31;6195365;23;20396;-80
2021/10/24 10:51:23;;;;;;;21.10;6.38;;;;;;;11.72;100.00;102065.75;6193016;23;20007;-79
2021/10/24 10:53:56;;;;;;;20.75;6.65;;;;;;;11.80;100.00;102081.06;6189435;23;20011;-80
2021/10/24 10:56:40;;;;;;;25.52;6.90;;;;;;;11.76;100.00;102070.63;6189867;23;20005;-80
2021/10/24 10:59:07;;;;;;;27.57;6.07;;;;;;;11.54;100.00;102033.66;6187126;23;20430;-80
2021/10/24 11:01:41;;;;;;;23.35;6.60;;;;;;;11.77;100.00;102058.00;6187311;23;20406;-79
2021/10/24 11:04:07;;;;;;;24.98;6.45;;;;;;;11.75;100.00;102068.09;6191366;23;20012;-80
2021/10/24 11:06:38;;;;;;;22.52;6.40;;;;;;;11.76;100.00;102065.25;6193109;23;20012;-79
2021/10/24 11:09:07;;;;;;;21.15;6.95;;;;;;;11.77;100.00;102061.53;6185835;23;20471;-79
2021/10/24 11:14:20;;;;;;;24.85;6.68;;;;;;;11.77;100.00;102079.56;6189035;23;20075;-79
2021/10/24 11:16:46;;;;;;;24.88;6.78;;;;;;;11.79;100.00;102079.38;6191146;23;20000;-82
2021/10/24 11:19:36;;;;;;;24.33;7.15;;;;;;;11.79;100.00;102072.16;6201789;23;20001;-80
2021/10/24 11:22:10;;;;;;;21.33;6.82;;;;;;;11.70;100.00;102054.31;6205282;23;20012;-80
2021/10/24 11:24:41;;;;;;;17.53;6.50;;;;;;;11.82;100.00;102079.03;6201285;23;20004;-81
2021/10/24 11:27:11;;;;;;;23.52;6.55;;;;;;;11.82;100.00;102073.63;6198303;23;20297;-80